sensor_id;sensor_type;location;lat;lon;timestamp;temperature;humidity
26583;DHT22;14230;45.382;10.998;2023-05-17T00:00:50;14.60;99.90
26583;DHT22;14230;45.382;10.998;2023-05-17T00:03:17;14.60;99.90
26583;DHT22;14230;45.382;10.998;2023-05-17T00:05:45;14.60;99.90
26583;DHT22;14230;45.382;10.998;2023-05-17T00:08:12;14.60;99.90
26583;DHT22;14230;45.382;10.998;2023-05-17T00:10:40;14.60;99.90
26583;DHT22;14230;45.382;10.998;2023-05-17T00:13:08;14.60;99.90
26583;DHT22;14230;45.382;10.998;2023-05-17T00:15:35;14.50;99.90
26583;DHT22;14230;45.382;10.998;2023-05-17T00:18:03;14.50;99.90
26583;DHT22;14230;45.382;10.998;2023-05-17T00:20:30;14.50;99.90
26583;DHT22;14230;45.382;10.998;2023-05-17T00:22:58;14.50;99.90
26583;DHT22;14230;45.382;10.998;2023-05-17T00:25:25;14.60;99.90
26583;DHT22;14230;45.382;10.998;2023-05-17T00:27:53;14.50;99.90
26583;DHT22;14230;45.382;10.998;2023-05-17T00:30:21;14.50;99.90
26583;DHT22;14230;45.382;10.998;2023-05-17T00:32:49;14.50;99.90
26583;DHT22;14230;45.382;10.998;2023-05-17T00:35:17;14.40;99.90
26583;DHT22;14230;45.382;10.998;2023-05-17T00:37:45;14.40;99.90
26583;DHT22;14230;45.382;10.998;2023-05-17T00:40:14;14.40;99.90
26583;DHT22;14230;45.382;10.998;2023-05-17T00:42:44;14.30;99.90
26583;DHT22;14230;45.382;10.998;2023-05-17T00:45:12;14.30;99.90
26583;DHT22;14230;45.382;10.998;2023-05-17T00:47:39;14.30;99.90
26583;DHT22;14230;45.382;10.998;2023-05-17T00:50:07;14.30;99.90
26583;DHT22;14230;45.382;10.998;2023-05-17T00:52:35;14.20;99.90
26583;DHT22;14230;45.382;10.998;2023-05-17T00:55:03;14.20;99.90
26583;DHT22;14230;45.382;10.998;2023-05-17T00:57:30;14.10;99.90
26583;DHT22;14230;45.382;10.998;2023-05-17T01:00:00;14.10;99.90
26583;DHT22;14230;45.382;10.998;2023-05-17T01:02:28;14.10;99.90
26583;DHT22;14230;45.382;10.998;2023-05-17T01:04:56;14.10;99.90
26583;DHT22;14230;45.382;10.998;2023-05-17T01:07:24;14.10;99.90
26583;DHT22;14230;45.382;10.998;2023-05-17T01:09:51;14.20;99.90
26583;DHT22;14230;45.382;10.998;2023-05-17T01:12:47;14.10;99.90
26583;DHT22;14230;45.382;10.998;2023-05-17T01:15:32;14.10;99.90
26583;DHT22;14230;45.382;10.998;2023-05-17T01:20:54;14.10;99.90
26583;DHT22;14230;45.382;10.998;2023-05-17T01:23:47;14.10;99.90
26583;DHT22;14230;45.382;10.998;2023-05-17T01:26:38;14.10;99.90
26583;DHT22;14230;45.382;10.998;2023-05-17T01:29:08;14.20;99.90
26583;DHT22;14230;45.382;10.998;2023-05-17T01:31:36;14.20;99.90
26583;DHT22;14230;45.382;10.998;2023-05-17T01:34:08;14.20;99.90
26583;DHT22;14230;45.382;10.998;2023-05-17T01:36:36;14.20;99.90
26583;DHT22;14230;45.382;10.998;2023-05-17T01:39:03;14.20;99.90
26583;DHT22;14230;45.382;10.998;2023-05-17T01:41:39;14.10;99.90
26583;DHT22;14230;45.382;10.998;2023-05-17T01:44:35;14.10;99.90
26583;DHT22;14230;45.382;10.998;2023-05-17T01:50:05;14.10;99.90
26583;DHT22;14230;45.382;10.998;2023-05-17T01:52:47;14.00;99.90
26583;DHT22;14230;45.382;10.998;2023-05-17T01:55:49;14.00;99.90
26583;DHT22;14230;45.382;10.998;2023-05-17T01:58:18;14.10;99.90
26583;DHT22;14230;45.382;10.998;2023-05-17T02:00:48;14.10;99.90
26583;DHT22;14230;45.382;10.998;2023-05-17T02:03:19;14.00;99.90
26583;DHT22;14230;45.382;10.998;2023-05-17T02:05:51;13.90;99.90
26583;DHT22;14230;45.382;10.998;2023-05-17T02:08:18;13.90;99.90
26583;DHT22;14230;45.382;10.998;2023-05-17T02:10:46;13.90;99.90
26583;DHT22;14230;45.382;10.998;2023-05-17T02:13:13;14.00;99.90
26583;DHT22;14230;45.382;10.998;2023-05-17T02:15:41;14.00;99.90
26583;DHT22;14230;45.382;10.998;2023-05-17T02:18:08;14.00;99.90
26583;DHT22;14230;45.382;10.998;2023-05-17T02:20:38;13.90;99.90
26583;DHT22;14230;45.382;10.998;2023-05-17T02:23:07;14.00;99.90
26583;DHT22;14230;45.382;10.998;2023-05-17T02:25:34;14.00;99.90
26583;DHT22;14230;45.382;10.998;2023-05-17T02:28:02;14.00;99.90
26583;DHT22;14230;45.382;10.998;2023-05-17T02:30:29;14.10;99.90
26583;DHT22;14230;45.382;10.998;2023-05-17T02:32:57;14.10;99.90
26583;DHT22;14230;45.382;10.998;2023-05-17T02:35:25;14.10;99.90
26583;DHT22;14230;45.382;10.998;2023-05-17T02:37:53;14.10;99.90
26583;DHT22;14230;45.382;10.998;2023-05-17T02:40:20;14.10;99.90
26583;DHT22;14230;45.382;10.998;2023-05-17T02:42:48;14.10;99.90
26583;DHT22;14230;45.382;10.998;2023-05-17T02:45:15;14.00;99.90
26583;DHT22;14230;45.382;10.998;2023-05-17T02:47:43;14.10;99.90
26583;DHT22;14230;45.382;10.998;2023-05-17T02:50:10;14.10;99.90
26583;DHT22;14230;45.382;10.998;2023-05-17T02:52:38;14.10;99.90
26583;DHT22;14230;45.382;10.998;2023-05-17T02:55:06;14.10;99.90
26583;DHT22;14230;45.382;10.998;2023-05-17T02:57:34;14.00;99.90
26583;DHT22;14230;45.382;10.998;2023-05-17T03:00:02;14.00;99.90
26583;DHT22;14230;45.382;10.998;2023-05-17T03:02:30;14.00;99.90
26583;DHT22;14230;45.382;10.998;2023-05-17T03:04:57;14.10;99.90
26583;DHT22;14230;45.382;10.998;2023-05-17T03:07:25;14.10;99.90
26583;DHT22;14230;45.382;10.998;2023-05-17T03:09:53;14.10;99.90
26583;DHT22;14230;45.382;10.998;2023-05-17T03:12:21;14.10;99.90
26583;DHT22;14230;45.382;10.998;2023-05-17T03:14:49;14.00;99.90
26583;DHT22;14230;45.382;10.998;2023-05-17T03:17:16;14.00;99.90
26583;DHT22;14230;45.382;10.998;2023-05-17T03:19:44;14.00;99.90
26583;DHT22;14230;45.382;10.998;2023-05-17T03:22:12;14.00;99.90
26583;DHT22;14230;45.382;10.998;2023-05-17T03:24:40;14.00;99.90
26583;DHT22;14230;45.382;10.998;2023-05-17T03:27:07;14.10;99.90
26583;DHT22;14230;45.382;10.998;2023-05-17T03:29:35;14.10;99.90
26583;DHT22;14230;45.382;10.998;2023-05-17T03:32:03;14.10;99.90
26583;DHT22;14230;45.382;10.998;2023-05-17T03:34:31;14.10;99.90
26583;DHT22;14230;45.382;10.998;2023-05-17T03:37:00;14.20;99.90
26583;DHT22;14230;45.382;10.998;2023-05-17T03:39:27;14.20;99.90
26583;DHT22;14230;45.382;10.998;2023-05-17T03:41:55;14.20;99.90
26583;DHT22;14230;45.382;10.998;2023-05-17T03:44:23;14.10;99.90
26583;DHT22;14230;45.382;10.998;2023-05-17T03:46:52;14.10;99.90
26583;DHT22;14230;45.382;10.998;2023-05-17T03:49:23;14.10;99.90
26583;DHT22;14230;45.382;10.998;2023-05-17T03:51:51;14.00;99.90
26583;DHT22;14230;45.382;10.998;2023-05-17T03:54:19;14.00;99.90
26583;DHT22;14230;45.382;10.998;2023-05-17T03:56:46;14.00;99.90
26583;DHT22;14230;45.382;10.998;2023-05-17T03:59:17;14.00;99.90
26583;DHT22;14230;45.382;10.998;2023-05-17T04:01:45;14.10;99.90
26583;DHT22;14230;45.382;10.998;2023-05-17T04:04:13;14.00;99.90
26583;DHT22;14230;45.382;10.998;2023-05-17T04:06:41;14.00;99.90
26583;DHT22;14230;45.382;10.998;2023-05-17T04:09:08;14.00;99.90
26583;DHT22;14230;45.382;10.998;2023-05-17T04:11:38;14.00;99.90
26583;DHT22;14230;45.382;10.998;2023-05-17T04:14:07;13.90;99.90
26583;DHT22;14230;45.382;10.998;2023-05-17T04:16:35;13.90;99.90
26583;DHT22;14230;45.382;10.998;2023-05-17T04:19:03;13.90;99.90
26583;DHT22;14230;45.382;10.998;2023-05-17T04:21:31;13.90;99.90
26583;DHT22;14230;45.382;10.998;2023-05-17T04:23:58;13.90;99.90
26583;DHT22;14230;45.382;10.998;2023-05-17T04:26:26;13.90;99.90
26583;DHT22;14230;45.382;10.998;2023-05-17T04:28:54;14.00;99.90
26583;DHT22;14230;45.382;10.998;2023-05-17T04:31:22;14.00;99.90
26583;DHT22;14230;45.382;10.998;2023-05-17T04:33:50;14.10;99.90
26583;DHT22;14230;45.382;10.998;2023-05-17T04:36:17;14.10;99.90
26583;DHT22;14230;45.382;10.998;2023-05-17T04:38:45;14.20;99.90
26583;DHT22;14230;45.382;10.998;2023-05-17T04:41:17;14.30;99.90
26583;DHT22;14230;45.382;10.998;2023-05-17T04:43:44;14.30;99.90
26583;DHT22;14230;45.382;10.998;2023-05-17T04:46:19;14.30;99.90
26583;DHT22;14230;45.382;10.998;2023-05-17T04:48:47;14.30;99.90
26583;DHT22;14230;45.382;10.998;2023-05-17T04:51:15;14.30;99.90
26583;DHT22;14230;45.382;10.998;2023-05-17T04:53:43;14.40;99.90
26583;DHT22;14230;45.382;10.998;2023-05-17T04:56:15;14.40;99.90
26583;DHT22;14230;45.382;10.998;2023-05-17T04:58:45;14.40;99.90
26583;DHT22;14230;45.382;10.998;2023-05-17T05:01:12;14.40;99.90
26583;DHT22;14230;45.382;10.998;2023-05-17T05:03:40;14.40;99.90
26583;DHT22;14230;45.382;10.998;2023-05-17T05:06:12;14.50;99.90
26583;DHT22;14230;45.382;10.998;2023-05-17T05:08:40;14.50;99.90
26583;DHT22;14230;45.382;10.998;2023-05-17T05:11:10;14.50;99.90
26583;DHT22;14230;45.382;10.998;2023-05-17T05:13:38;14.60;99.90
26583;DHT22;14230;45.382;10.998;2023-05-17T05:16:07;14.60;99.90
26583;DHT22;14230;45.382;10.998;2023-05-17T05:18:36;14.60;99.90
26583;DHT22;14230;45.382;10.998;2023-05-17T05:21:04;14.60;99.90
26583;DHT22;14230;45.382;10.998;2023-05-17T05:23:32;14.60;99.90
26583;DHT22;14230;45.382;10.998;2023-05-17T05:26:00;14.60;99.90
26583;DHT22;14230;45.382;10.998;2023-05-17T05:28:27;14.60;99.90
26583;DHT22;14230;45.382;10.998;2023-05-17T05:30:58;14.70;99.90
26583;DHT22;14230;45.382;10.998;2023-05-17T05:33:37;14.70;99.90
26583;DHT22;14230;45.382;10.998;2023-05-17T05:36:05;14.80;99.90
26583;DHT22;14230;45.382;10.998;2023-05-17T05:38:32;14.80;99.90
26583;DHT22;14230;45.382;10.998;2023-05-17T05:41:00;14.80;99.90
26583;DHT22;14230;45.382;10.998;2023-05-17T05:43:29;14.90;99.90
26583;DHT22;14230;45.382;10.998;2023-05-17T05:45:57;14.90;99.90
26583;DHT22;14230;45.382;10.998;2023-05-17T05:48:24;15.00;99.90
26583;DHT22;14230;45.382;10.998;2023-05-17T05:50:52;15.00;99.90
26583;DHT22;14230;45.382;10.998;2023-05-17T05:53:20;15.10;99.90
26583;DHT22;14230;45.382;10.998;2023-05-17T05:55:51;15.20;99.90
26583;DHT22;14230;45.382;10.998;2023-05-17T05:58:20;15.30;99.90
26583;DHT22;14230;45.382;10.998;2023-05-17T06:00:48;15.30;99.90
26583;DHT22;14230;45.382;10.998;2023-05-17T06:03:16;15.40;99.90
26583;DHT22;14230;45.382;10.998;2023-05-17T06:05:43;15.40;99.90
26583;DHT22;14230;45.382;10.998;2023-05-17T06:08:11;15.50;99.90
26583;DHT22;14230;45.382;10.998;2023-05-17T06:10:38;15.60;99.90
26583;DHT22;14230;45.382;10.998;2023-05-17T06:13:06;15.60;99.90
26583;DHT22;14230;45.382;10.998;2023-05-17T06:15:33;15.60;99.90
26583;DHT22;14230;45.382;10.998;2023-05-17T06:18:01;15.60;99.90
26583;DHT22;14230;45.382;10.998;2023-05-17T06:20:28;15.50;99.90
26583;DHT22;14230;45.382;10.998;2023-05-17T06:22:56;15.60;99.90
26583;DHT22;14230;45.382;10.998;2023-05-17T06:25:25;15.70;99.90
26583;DHT22;14230;45.382;10.998;2023-05-17T06:27:52;15.70;99.90
26583;DHT22;14230;45.382;10.998;2023-05-17T06:30:19;15.70;99.90
26583;DHT22;14230;45.382;10.998;2023-05-17T06:32:47;15.70;99.90
26583;DHT22;14230;45.382;10.998;2023-05-17T06:35:14;15.70;99.90
26583;DHT22;14230;45.382;10.998;2023-05-17T06:37:42;15.80;99.90
26583;DHT22;14230;45.382;10.998;2023-05-17T06:40:11;15.80;99.90
26583;DHT22;14230;45.382;10.998;2023-05-17T06:42:57;15.80;99.90
26583;DHT22;14230;45.382;10.998;2023-05-17T06:45:25;15.90;99.90
26583;DHT22;14230;45.382;10.998;2023-05-17T06:47:53;15.90;99.90
26583;DHT22;14230;45.382;10.998;2023-05-17T06:50:21;16.00;99.90
26583;DHT22;14230;45.382;10.998;2023-05-17T06:52:48;16.20;99.90
26583;DHT22;14230;45.382;10.998;2023-05-17T06:55:16;16.30;99.90
26583;DHT22;14230;45.382;10.998;2023-05-17T06:57:43;16.40;99.90
26583;DHT22;14230;45.382;10.998;2023-05-17T07:00:11;16.60;99.90
26583;DHT22;14230;45.382;10.998;2023-05-17T07:02:39;16.60;99.90
26583;DHT22;14230;45.382;10.998;2023-05-17T07:05:07;16.60;99.90
26583;DHT22;14230;45.382;10.998;2023-05-17T07:07:34;16.60;99.90
26583;DHT22;14230;45.382;10.998;2023-05-17T07:10:06;16.70;99.90
26583;DHT22;14230;45.382;10.998;2023-05-17T07:12:33;16.70;99.90
26583;DHT22;14230;45.382;10.998;2023-05-17T07:15:01;16.70;99.90
26583;DHT22;14230;45.382;10.998;2023-05-17T07:17:29;16.70;99.90
26583;DHT22;14230;45.382;10.998;2023-05-17T07:19:56;16.70;99.90
26583;DHT22;14230;45.382;10.998;2023-05-17T07:22:24;16.60;99.90
26583;DHT22;14230;45.382;10.998;2023-05-17T07:24:52;16.60;99.90
26583;DHT22;14230;45.382;10.998;2023-05-17T07:27:19;16.50;99.90
26583;DHT22;14230;45.382;10.998;2023-05-17T07:29:46;16.50;99.90
26583;DHT22;14230;45.382;10.998;2023-05-17T07:32:17;16.40;99.90
26583;DHT22;14230;45.382;10.998;2023-05-17T07:34:44;16.30;99.90
26583;DHT22;14230;45.382;10.998;2023-05-17T07:37:12;16.30;99.90
26583;DHT22;14230;45.382;10.998;2023-05-17T07:39:40;16.40;99.90
26583;DHT22;14230;45.382;10.998;2023-05-17T07:42:07;16.30;99.90
26583;DHT22;14230;45.382;10.998;2023-05-17T07:44:35;16.40;99.90
26583;DHT22;14230;45.382;10.998;2023-05-17T07:47:02;16.50;99.90
26583;DHT22;14230;45.382;10.998;2023-05-17T07:49:30;16.70;99.90
26583;DHT22;14230;45.382;10.998;2023-05-17T07:51:58;16.90;99.90
26583;DHT22;14230;45.382;10.998;2023-05-17T07:54:25;17.10;99.90
26583;DHT22;14230;45.382;10.998;2023-05-17T07:56:53;17.40;99.90
26583;DHT22;14230;45.382;10.998;2023-05-17T07:59:22;17.80;99.90
26583;DHT22;14230;45.382;10.998;2023-05-17T08:01:49;18.20;99.90
26583;DHT22;14230;45.382;10.998;2023-05-17T08:04:17;18.50;99.90
26583;DHT22;14230;45.382;10.998;2023-05-17T08:06:47;18.80;99.90
26583;DHT22;14230;45.382;10.998;2023-05-17T08:09:16;19.20;99.90
26583;DHT22;14230;45.382;10.998;2023-05-17T08:11:43;19.20;99.90
26583;DHT22;14230;45.382;10.998;2023-05-17T08:14:14;19.00;99.90
26583;DHT22;14230;45.382;10.998;2023-05-17T08:16:43;18.60;99.90
26583;DHT22;14230;45.382;10.998;2023-05-17T08:19:12;18.60;99.90
26583;DHT22;14230;45.382;10.998;2023-05-17T08:21:40;18.60;99.90
26583;DHT22;14230;45.382;10.998;2023-05-17T08:24:08;18.60;99.90
26583;DHT22;14230;45.382;10.998;2023-05-17T08:26:36;18.70;99.90
26583;DHT22;14230;45.382;10.998;2023-05-17T08:29:07;18.80;99.90
26583;DHT22;14230;45.382;10.998;2023-05-17T08:31:34;18.90;99.90
26583;DHT22;14230;45.382;10.998;2023-05-17T08:34:01;19.00;99.90
26583;DHT22;14230;45.382;10.998;2023-05-17T08:36:29;19.00;99.90
26583;DHT22;14230;45.382;10.998;2023-05-17T08:38:57;18.90;99.90
26583;DHT22;14230;45.382;10.998;2023-05-17T08:41:24;18.90;99.90
26583;DHT22;14230;45.382;10.998;2023-05-17T08:43:52;18.90;99.90
26583;DHT22;14230;45.382;10.998;2023-05-17T08:46:22;19.00;99.90
26583;DHT22;14230;45.382;10.998;2023-05-17T08:48:51;19.00;99.90
26583;DHT22;14230;45.382;10.998;2023-05-17T08:51:19;19.10;99.90
26583;DHT22;14230;45.382;10.998;2023-05-17T08:53:48;19.40;99.90
26583;DHT22;14230;45.382;10.998;2023-05-17T08:56:17;19.60;99.90
26583;DHT22;14230;45.382;10.998;2023-05-17T08:58:47;19.80;99.90
26583;DHT22;14230;45.382;10.998;2023-05-17T09:01:24;20.00;99.90
26583;DHT22;14230;45.382;10.998;2023-05-17T09:03:54;20.10;99.90
26583;DHT22;14230;45.382;10.998;2023-05-17T09:06:23;20.00;99.90
26583;DHT22;14230;45.382;10.998;2023-05-17T09:08:52;20.20;99.90
26583;DHT22;14230;45.382;10.998;2023-05-17T09:11:28;20.30;99.90
26583;DHT22;14230;45.382;10.998;2023-05-17T09:14:01;20.50;99.90
26583;DHT22;14230;45.382;10.998;2023-05-17T09:16:32;20.60;99.90
26583;DHT22;14230;45.382;10.998;2023-05-17T09:19:01;20.80;99.90
26583;DHT22;14230;45.382;10.998;2023-05-17T09:21:31;20.90;99.90
26583;DHT22;14230;45.382;10.998;2023-05-17T09:23:59;21.00;99.90
26583;DHT22;14230;45.382;10.998;2023-05-17T09:26:40;21.00;99.90
26583;DHT22;14230;45.382;10.998;2023-05-17T09:31:37;21.30;99.90
26583;DHT22;14230;45.382;10.998;2023-05-17T09:34:04;21.40;99.90
26583;DHT22;14230;45.382;10.998;2023-05-17T09:36:36;21.40;99.90
26583;DHT22;14230;45.382;10.998;2023-05-17T09:39:06;21.40;99.90
26583;DHT22;14230;45.382;10.998;2023-05-17T09:44:08;21.20;99.90
26583;DHT22;14230;45.382;10.998;2023-05-17T09:46:47;21.20;99.90
26583;DHT22;14230;45.382;10.998;2023-05-17T09:49:15;21.10;99.90
26583;DHT22;14230;45.382;10.998;2023-05-17T09:51:45;21.20;99.90
26583;DHT22;14230;45.382;10.998;2023-05-17T09:54:13;21.40;99.90
26583;DHT22;14230;45.382;10.998;2023-05-17T09:56:41;21.80;99.90
26583;DHT22;14230;45.382;10.998;2023-05-17T09:59:13;21.80;99.90
26583;DHT22;14230;45.382;10.998;2023-05-17T10:01:43;22.00;99.90
26583;DHT22;14230;45.382;10.998;2023-05-17T10:04:12;22.10;99.90
26583;DHT22;14230;45.382;10.998;2023-05-17T10:06:41;22.20;99.90
26583;DHT22;14230;45.382;10.998;2023-05-17T10:09:20;22.30;99.90
26583;DHT22;14230;45.382;10.998;2023-05-17T10:11:50;22.50;99.90
26583;DHT22;14230;45.382;10.998;2023-05-17T10:14:31;22.60;99.90
26583;DHT22;14230;45.382;10.998;2023-05-17T10:17:01;22.80;99.90
26583;DHT22;14230;45.382;10.998;2023-05-17T10:19:29;22.70;99.90
26583;DHT22;14230;45.382;10.998;2023-05-17T10:21:57;22.70;99.90
26583;DHT22;14230;45.382;10.998;2023-05-17T10:24:45;22.60;99.90
26583;DHT22;14230;45.382;10.998;2023-05-17T10:27:15;22.50;99.90
26583;DHT22;14230;45.382;10.998;2023-05-17T10:29:43;22.40;99.90
26583;DHT22;14230;45.382;10.998;2023-05-17T10:32:13;22.10;99.90
26583;DHT22;14230;45.382;10.998;2023-05-17T10:34:42;21.90;99.90
26583;DHT22;14230;45.382;10.998;2023-05-17T10:37:12;21.70;99.90
26583;DHT22;14230;45.382;10.998;2023-05-17T10:39:40;21.60;99.90
26583;DHT22;14230;45.382;10.998;2023-05-17T10:42:11;21.40;99.90
26583;DHT22;14230;45.382;10.998;2023-05-17T10:44:41;21.40;99.90
26583;DHT22;14230;45.382;10.998;2023-05-17T10:47:09;21.40;99.90
26583;DHT22;14230;45.382;10.998;2023-05-17T10:49:38;21.50;99.90
26583;DHT22;14230;45.382;10.998;2023-05-17T10:52:17;21.40;99.90
26583;DHT22;14230;45.382;10.998;2023-05-17T10:54:47;21.50;99.90
26583;DHT22;14230;45.382;10.998;2023-05-17T10:57:21;21.40;99.90
26583;DHT22;14230;45.382;10.998;2023-05-17T11:00:19;21.40;99.90
26583;DHT22;14230;45.382;10.998;2023-05-17T11:02:46;21.20;99.90
26583;DHT22;14230;45.382;10.998;2023-05-17T11:05:22;21.20;99.90
26583;DHT22;14230;45.382;10.998;2023-05-17T11:07:51;21.10;99.90
26583;DHT22;14230;45.382;10.998;2023-05-17T11:10:18;21.10;99.90
26583;DHT22;14230;45.382;10.998;2023-05-17T11:12:47;21.20;99.90
26583;DHT22;14230;45.382;10.998;2023-05-17T11:15:24;21.30;99.90
26583;DHT22;14230;45.382;10.998;2023-05-17T11:17:52;21.30;99.90
26583;DHT22;14230;45.382;10.998;2023-05-17T11:23:04;21.40;99.90
26583;DHT22;14230;45.382;10.998;2023-05-17T11:27:59;21.20;99.90
26583;DHT22;14230;45.382;10.998;2023-05-17T11:30:31;21.20;99.90
26583;DHT22;14230;45.382;10.998;2023-05-17T11:33:05;20.90;99.90
26583;DHT22;14230;45.382;10.998;2023-05-17T11:35:47;20.80;99.90
26583;DHT22;14230;45.382;10.998;2023-05-17T11:38:19;20.70;99.90
26583;DHT22;14230;45.382;10.998;2023-05-17T11:40:49;20.90;99.90
26583;DHT22;14230;45.382;10.998;2023-05-17T11:43:20;21.00;99.90
26583;DHT22;14230;45.382;10.998;2023-05-17T11:45:54;21.00;99.90
26583;DHT22;14230;45.382;10.998;2023-05-17T11:48:25;21.20;99.90
26583;DHT22;14230;45.382;10.998;2023-05-17T11:50:54;21.30;99.90
26583;DHT22;14230;45.382;10.998;2023-05-17T11:53:25;21.50;99.90
26583;DHT22;14230;45.382;10.998;2023-05-17T11:55:54;21.50;99.90
26583;DHT22;14230;45.382;10.998;2023-05-17T11:58:26;21.50;99.90
26583;DHT22;14230;45.382;10.998;2023-05-17T12:00:57;21.20;99.90
26583;DHT22;14230;45.382;10.998;2023-05-17T12:03:28;21.30;99.90
26583;DHT22;14230;45.382;10.998;2023-05-17T12:06:07;21.40;99.90
26583;DHT22;14230;45.382;10.998;2023-05-17T12:08:37;21.50;99.90
26583;DHT22;14230;45.382;10.998;2023-05-17T12:11:06;21.50;99.90
26583;DHT22;14230;45.382;10.998;2023-05-17T12:13:34;21.40;99.90
26583;DHT22;14230;45.382;10.998;2023-05-17T12:16:03;21.30;99.90
26583;DHT22;14230;45.382;10.998;2023-05-17T12:18:50;21.40;99.90
26583;DHT22;14230;45.382;10.998;2023-05-17T12:21:18;21.20;99.90
26583;DHT22;14230;45.382;10.998;2023-05-17T12:23:51;21.20;99.90
26583;DHT22;14230;45.382;10.998;2023-05-17T12:26:20;21.30;99.90
26583;DHT22;14230;45.382;10.998;2023-05-17T12:28:54;21.50;99.90
26583;DHT22;14230;45.382;10.998;2023-05-17T12:31:34;21.50;99.90
26583;DHT22;14230;45.382;10.998;2023-05-17T12:34:06;21.60;99.90
26583;DHT22;14230;45.382;10.998;2023-05-17T12:36:36;21.50;99.90
26583;DHT22;14230;45.382;10.998;2023-05-17T12:39:03;21.10;99.90
26583;DHT22;14230;45.382;10.998;2023-05-17T12:41:38;21.30;99.90
26583;DHT22;14230;45.382;10.998;2023-05-17T12:44:06;21.60;99.90
26583;DHT22;14230;45.382;10.998;2023-05-17T12:46:43;21.90;99.90
26583;DHT22;14230;45.382;10.998;2023-05-17T12:49:11;21.90;99.90
26583;DHT22;14230;45.382;10.998;2023-05-17T12:51:43;22.00;99.90
26583;DHT22;14230;45.382;10.998;2023-05-17T12:56:52;22.10;99.90
26583;DHT22;14230;45.382;10.998;2023-05-17T12:59:21;22.20;99.90
26583;DHT22;14230;45.382;10.998;2023-05-17T13:01:56;22.20;99.90
26583;DHT22;14230;45.382;10.998;2023-05-17T13:04:31;22.00;99.90
26583;DHT22;14230;45.382;10.998;2023-05-17T13:07:01;22.20;99.90
26583;DHT22;14230;45.382;10.998;2023-05-17T13:09:31;22.20;99.90
26583;DHT22;14230;45.382;10.998;2023-05-17T13:12:04;22.20;99.90
26583;DHT22;14230;45.382;10.998;2023-05-17T13:17:25;22.20;99.90
26583;DHT22;14230;45.382;10.998;2023-05-17T13:19:54;22.40;99.90
26583;DHT22;14230;45.382;10.998;2023-05-17T13:22:24;22.50;99.90
26583;DHT22;14230;45.382;10.998;2023-05-17T13:24:52;22.20;99.90
26583;DHT22;14230;45.382;10.998;2023-05-17T13:27:20;22.10;99.90
26583;DHT22;14230;45.382;10.998;2023-05-17T13:29:47;22.00;99.90
26583;DHT22;14230;45.382;10.998;2023-05-17T13:32:15;22.10;99.90
26583;DHT22;14230;45.382;10.998;2023-05-17T13:34:42;21.80;99.90
26583;DHT22;14230;45.382;10.998;2023-05-17T13:37:10;21.60;99.90
26583;DHT22;14230;45.382;10.998;2023-05-17T13:39:40;21.50;99.90
26583;DHT22;14230;45.382;10.998;2023-05-17T13:42:09;21.20;99.90
26583;DHT22;14230;45.382;10.998;2023-05-17T13:44:37;21.00;99.90
26583;DHT22;14230;45.382;10.998;2023-05-17T13:47:05;21.00;99.90
26583;DHT22;14230;45.382;10.998;2023-05-17T13:49:33;21.00;99.90
26583;DHT22;14230;45.382;10.998;2023-05-17T13:52:01;20.90;99.90
26583;DHT22;14230;45.382;10.998;2023-05-17T13:54:28;20.90;99.90
26583;DHT22;14230;45.382;10.998;2023-05-17T13:56:55;20.90;99.90
26583;DHT22;14230;45.382;10.998;2023-05-17T13:59:23;20.90;99.90
26583;DHT22;14230;45.382;10.998;2023-05-17T14:01:51;20.80;99.90
26583;DHT22;14230;45.382;10.998;2023-05-17T14:04:19;20.80;99.90
26583;DHT22;14230;45.382;10.998;2023-05-17T14:06:48;20.70;99.90
26583;DHT22;14230;45.382;10.998;2023-05-17T14:09:17;20.80;99.90
26583;DHT22;14230;45.382;10.998;2023-05-17T14:11:45;20.70;99.90
26583;DHT22;14230;45.382;10.998;2023-05-17T14:14:12;20.70;99.90
26583;DHT22;14230;45.382;10.998;2023-05-17T14:16:40;20.70;99.90
26583;DHT22;14230;45.382;10.998;2023-05-17T14:19:07;20.80;99.90
26583;DHT22;14230;45.382;10.998;2023-05-17T14:21:36;20.70;99.90
26583;DHT22;14230;45.382;10.998;2023-05-17T14:24:03;20.70;99.90
26583;DHT22;14230;45.382;10.998;2023-05-17T14:26:31;20.70;99.90
26583;DHT22;14230;45.382;10.998;2023-05-17T14:28:58;20.80;99.90
26583;DHT22;14230;45.382;10.998;2023-05-17T14:31:26;20.90;99.90
26583;DHT22;14230;45.382;10.998;2023-05-17T14:33:56;20.80;99.90
26583;DHT22;14230;45.382;10.998;2023-05-17T14:36:23;20.90;99.90
26583;DHT22;14230;45.382;10.998;2023-05-17T14:38:51;20.90;99.90
26583;DHT22;14230;45.382;10.998;2023-05-17T14:41:18;20.90;99.90
26583;DHT22;14230;45.382;10.998;2023-05-17T14:43:46;20.80;99.90
26583;DHT22;14230;45.382;10.998;2023-05-17T14:46:13;20.70;99.90
26583;DHT22;14230;45.382;10.998;2023-05-17T14:48:41;20.60;99.90
26583;DHT22;14230;45.382;10.998;2023-05-17T14:51:08;20.40;99.90
26583;DHT22;14230;45.382;10.998;2023-05-17T14:53:36;20.30;99.90
26583;DHT22;14230;45.382;10.998;2023-05-17T14:56:03;20.50;99.90
26583;DHT22;14230;45.382;10.998;2023-05-17T14:58:31;20.60;99.90
26583;DHT22;14230;45.382;10.998;2023-05-17T15:00:58;20.80;99.90
26583;DHT22;14230;45.382;10.998;2023-05-17T15:03:32;21.00;99.90
26583;DHT22;14230;45.382;10.998;2023-05-17T15:06:00;21.20;99.90
26583;DHT22;14230;45.382;10.998;2023-05-17T15:08:32;21.10;99.90
26583;DHT22;14230;45.382;10.998;2023-05-17T15:11:00;21.10;99.90
26583;DHT22;14230;45.382;10.998;2023-05-17T15:13:28;21.10;99.90
26583;DHT22;14230;45.382;10.998;2023-05-17T15:15:55;20.90;99.90
26583;DHT22;14230;45.382;10.998;2023-05-17T15:18:23;20.80;99.90
26583;DHT22;14230;45.382;10.998;2023-05-17T15:20:50;20.60;99.90
26583;DHT22;14230;45.382;10.998;2023-05-17T15:23:18;20.60;99.90
26583;DHT22;14230;45.382;10.998;2023-05-17T15:25:45;20.50;99.90
26583;DHT22;14230;45.382;10.998;2023-05-17T15:28:13;20.50;99.90
26583;DHT22;14230;45.382;10.998;2023-05-17T15:30:41;20.40;99.90
26583;DHT22;14230;45.382;10.998;2023-05-17T15:33:08;20.30;99.90
26583;DHT22;14230;45.382;10.998;2023-05-17T15:35:39;20.30;99.90
26583;DHT22;14230;45.382;10.998;2023-05-17T15:38:07;20.30;99.90
26583;DHT22;14230;45.382;10.998;2023-05-17T15:40:35;20.30;99.90
26583;DHT22;14230;45.382;10.998;2023-05-17T15:43:02;20.30;99.90
26583;DHT22;14230;45.382;10.998;2023-05-17T15:45:29;20.30;99.90
26583;DHT22;14230;45.382;10.998;2023-05-17T15:47:57;20.10;99.90
26583;DHT22;14230;45.382;10.998;2023-05-17T15:50:28;20.00;99.90